Time;durP1;ratioP1;P1;durP2;ratioP2;P2;SDS_P1;SDS_P2;PMS_P1;PMS_P2;Temp;Humidity;BMP_temperature;BMP_pressure;BME280_temperature;BME280_humidity;BME280_pressure;Samples;Min_cycle;Max_cycle;Signal;HPM_P1;HPM_P2
2022/12/05 00:00:33;;;;;;;10.30;8.93;;;20.00;57.10;;;;;;5060133;27;89843;-87
2022/12/05 00:03:03;;;;;;;12.75;8.50;;;20.00;56.90;;;;;;5062135;27;89896;-87
2022/12/05 00:05:29;;;;;;;9.18;7.93;;;20.00;57.00;;;;;;5063480;27;87484;-86
2022/12/05 00:07:54;;;;;;;11.65;8.57;;;20.00;57.00;;;;;;5063365;27;87380;-86
2022/12/05 00:10:20;;;;;;;11.90;9.05;;;19.90;57.40;;;;;;5061453;27;88711;-86
2022/12/05 00:12:46;;;;;;;12.57;9.18;;;19.90;56.90;;;;;;5043257;27;89591;-86
2022/12/05 00:15:11;;;;;;;11.10;8.65;;;19.90;56.90;;;;;;5061410;27;87449;-86
2022/12/05 00:17:39;;;;;;;11.10;8.30;;;19.90;56.90;;;;;;5061566;27;87477;-85
2022/12/05 00:20:06;;;;;;;9.18;8.05;;;19.90;56.80;;;;;;5063289;27;88627;-85
2022/12/05 00:22:37;;;;;;;10.13;8.73;;;19.90;56.70;;;;;;5061913;27;90450;-86
2022/12/05 00:25:05;;;;;;;10.50;8.68;;;19.80;56.90;;;;;;5064818;27;88319;-85
2022/12/05 00:27:31;;;;;;;12.82;9.07;;;19.80;56.90;;;;;;5062703;27;88633;-87
2022/12/05 00:29:57;;;;;;;10.13;8.40;;;19.80;56.90;;;;;;5061886;27;87898;-87
2022/12/05 00:32:23;;;;;;;10.27;8.43;;;19.80;56.90;;;;;;5061474;27;88634;-87
2022/12/05 00:34:48;;;;;;;12.93;9.27;;;19.80;57.10;;;;;;5043897;27;87412;-86
2022/12/05 00:37:14;;;;;;;10.45;8.40;;;19.80;57.00;;;;;;5062013;27;88277;-87
2022/12/05 00:39:39;;;;;;;11.43;8.98;;;19.80;57.00;;;;;;5043962;27;92012;-85
2022/12/05 00:42:05;;;;;;;11.30;8.95;;;19.80;57.00;;;;;;5062106;27;87508;-86
2022/12/05 00:44:31;;;;;;;11.18;8.68;;;19.70;56.80;;;;;;5062411;27;87234;-87
2022/12/05 00:46:56;;;;;;;13.07;9.60;;;19.70;57.00;;;;;;5044605;27;89199;-87
2022/12/05 00:49:22;;;;;;;11.23;9.20;;;19.70;56.90;;;;;;5060256;27;88353;-86
2022/12/05 00:51:47;;;;;;;12.10;9.27;;;19.70;56.80;;;;;;5061477;27;88033;-87
2022/12/05 00:54:15;;;;;;;11.35;9.45;;;19.70;57.00;;;;;;5063065;27;87536;-86
2022/12/05 00:56:41;;;;;;;11.77;8.88;;;19.70;57.00;;;;;;5065892;27;88103;-86
2022/12/05 00:59:07;;;;;;;11.60;8.93;;;19.70;57.40;;;;;;5065726;27;87710;-87
2022/12/05 01:01:36;;;;;;;12.02;9.32;;;19.70;57.40;;;;;;5064670;27;87366;-86
2022/12/05 01:04:05;;;;;;;11.48;8.65;;;19.60;57.40;;;;;;5067794;27;87331;-87
2022/12/05 01:06:32;;;;;;;10.98;9.07;;;19.70;57.30;;;;;;5065505;27;87493;-86
2022/12/05 01:08:58;;;;;;;10.50;8.45;;;19.60;57.30;;;;;;5065645;27;87861;-87
2022/12/05 01:11:24;;;;;;;10.50;9.07;;;19.60;57.40;;;;;;5064638;27;87027;-87
2022/12/05 01:13:51;;;;;;;11.65;9.57;;;19.60;57.30;;;;;;5064837;27;87915;-87
2022/12/05 01:16:26;;;;;;;11.48;9.27;;;19.60;57.40;;;;;;5064406;27;88038;-87
2022/12/05 01:18:52;;;;;;;12.00;9.85;;;19.60;57.10;;;;;;5064003;27;88680;-86
2022/12/05 01:21:19;;;;;;;11.30;9.32;;;19.60;58.00;;;;;;5063658;27;87904;-87
2022/12/05 01:23:45;;;;;;;11.35;8.85;;;19.60;57.40;;;;;;5063709;27;87115;-87
2022/12/05 01:26:13;;;;;;;12.65;9.65;;;19.60;57.30;;;;;;5064409;27;88126;-86
2022/12/05 01:28:40;;;;;;;11.48;9.07;;;19.50;57.40;;;;;;5064668;27;92835;-86
2022/12/05 01:31:09;;;;;;;13.35;10.00;;;19.50;57.40;;;;;;5067771;27;88793;-87
2022/12/05 01:33:35;;;;;;;13.68;9.52;;;19.50;57.20;;;;;;5065610;27;87574;-87
2022/12/05 01:36:02;;;;;;;12.45;9.20;;;19.50;57.30;;;;;;5065742;27;87294;-87
2022/12/05 01:38:28;;;;;;;11.70;8.60;;;19.50;57.40;;;;;;5065290;27;89129;-86
2022/12/05 01:41:02;;;;;;;12.88;9.73;;;19.50;57.20;;;;;;5064999;27;89394;-86
2022/12/05 01:43:28;;;;;;;11.23;9.05;;;19.50;57.40;;;;;;5065681;27;87498;-86
2022/12/05 01:45:53;;;;;;;10.60;9.25;;;19.50;57.30;;;;;;5066695;27;88927;-86
2022/12/05 01:48:30;;;;;;;12.52;9.25;;;19.40;57.40;;;;;;5062865;27;88887;-87
2022/12/05 01:50:57;;;;;;;11.52;9.13;;;19.40;57.50;;;;;;5064848;27;88462;-86
2022/12/05 01:53:24;;;;;;;10.68;8.82;;;19.40;57.70;;;;;;5064190;27;87584;-87
2022/12/05 01:55:50;;;;;;;11.30;9.32;;;19.40;57.30;;;;;;5064393;27;86556;-86
2022/12/05 01:58:17;;;;;;;12.23;9.55;;;19.40;57.30;;;;;;5063992;27;88912;-86
2022/12/05 02:00:44;;;;;;;13.07;9.55;;;19.40;57.40;;;;;;5065471;27;88207;-86
2022/12/05 02:03:18;;;;;;;13.02;9.32;;;19.40;57.30;;;;;;5063591;27;87828;-86
2022/12/05 02:05:47;;;;;;;12.50;10.20;;;19.40;57.40;;;;;;5063698;27;87456;-86
2022/12/05 02:08:13;;;;;;;12.38;9.65;;;19.40;57.50;;;;;;5064371;27;87518;-86
2022/12/05 02:10:51;;;;;;;10.88;9.40;;;19.40;57.40;;;;;;5064598;27;88464;-85
2022/12/05 02:13:24;;;;;;;11.75;9.73;;;19.40;57.40;;;;;;5064484;27;87199;-87
2022/12/05 02:16:04;;;;;;;10.80;9.48;;;19.30;58.00;;;;;;5064445;27;88051;-86
2022/12/05 02:18:48;;;;;;;10.95;9.20;;;19.30;57.10;;;;;;5063714;27;87772;-87
2022/12/05 02:21:26;;;;;;;10.18;8.90;;;19.30;57.20;;;;;;5045339;27;91416;-85
2022/12/05 02:24:15;;;;;;;15.07;9.93;;;19.30;57.20;;;;;;5064096;27;86955;-86
2022/12/05 02:27:10;;;;;;;;;;;19.30;57.30;;;;;;5063984;27;87541;-86
2022/12/05 02:30:05;;;;;;;11.52;9.32;;;19.30;57.20;;;;;;4970988;28;89751;-86
2022/12/05 02:33:00;;;;;;;11.32;9.30;;;19.20;57.30;;;;;;4971215;28;88449;-85
2022/12/05 02:35:41;;;;;;;10.80;9.13;;;19.20;57.30;;;;;;4971493;28;87605;-86
2022/12/05 02:38:18;;;;;;;9.98;8.88;;;19.20;57.20;;;;;;4971124;28;87699;-87
2022/12/05 02:40:55;;;;;;;12.90;9.73;;;19.20;57.20;;;;;;4946257;28;90885;-86
2022/12/05 02:44:10;;;;;;;12.07;9.40;;;19.20;57.10;;;;;;4970982;28;87498;-86
2022/12/05 02:46:39;;;;;;;11.27;9.75;;;19.20;57.20;;;;;;4876945;28;87305;-87
2022/12/05 02:49:18;;;;;;;12.18;9.43;;;19.20;57.20;;;;;;4893599;28;87255;-85
2022/12/05 02:51:48;;;;;;;12.45;10.13;;;19.20;57.30;;;;;;4892539;28;87983;-86
2022/12/05 02:54:20;;;;;;;11.77;9.93;;;19.20;57.20;;;;;;4891841;28;87615;-86
2022/12/05 02:56:48;;;;;;;12.43;9.60;;;19.20;57.20;;;;;;4892833;28;88350;-86
2022/12/05 02:59:13;;;;;;;12.05;9.45;;;19.20;57.10;;;;;;4893049;28;87514;-86
2022/12/05 03:01:39;;;;;;;13.40;10.70;;;19.20;57.30;;;;;;4891679;28;87624;-86
2022/12/05 03:04:10;;;;;;;11.13;9.35;;;19.20;57.20;;;;;;4893205;28;88639;-87
2022/12/05 03:06:41;;;;;;;10.68;9.30;;;19.10;57.20;;;;;;4945230;28;87497;-87
2022/12/05 03:09:48;;;;;;;11.77;10.13;;;19.10;57.10;;;;;;4967099;28;87642;-86
2022/12/05 03:12:16;;;;;;;10.82;9.57;;;19.10;57.10;;;;;;4891489;28;88508;-85
2022/12/05 03:14:54;;;;;;;12.35;10.10;;;19.20;57.20;;;;;;4893119;28;88057;-87
2022/12/05 03:17:24;;;;;;;13.73;10.27;;;19.10;57.10;;;;;;4889717;28;87249;-86
2022/12/05 03:20:03;;;;;;;12.80;10.10;;;19.10;57.20;;;;;;4891763;28;87475;-86
2022/12/05 03:22:31;;;;;;;12.30;9.80;;;19.10;57.00;;;;;;4900277;28;89706;-86
2022/12/05 03:24:59;;;;;;;12.95;9.50;;;19.10;57.10;;;;;;4940219;28;93231;-87
2022/12/05 03:27:41;;;;;;;12.90;10.02;;;19.10;57.30;;;;;;4939051;28;87192;-86
2022/12/05 03:30:10;;;;;;;11.05;9.65;;;19.10;57.30;;;;;;4940888;28;87637;-85
2022/12/05 03:32:50;;;;;;;12.95;10.73;;;19.10;57.20;;;;;;4939781;28;88552;-87
2022/12/05 03:35:48;;;;;;;11.73;9.95;;;19.10;57.20;;;;;;4940683;28;88406;-87
2022/12/05 03:38:18;;;;;;;12.73;9.85;;;19.00;57.20;;;;;;4941372;28;87377;-86
2022/12/05 03:40:51;;;;;;;11.38;9.70;;;19.00;57.10;;;;;;4940836;28;87612;-86
2022/12/05 03:43:28;;;;;;;12.07;10.07;;;19.00;57.20;;;;;;5015567;27;88583;-86
2022/12/05 03:45:57;;;;;;;12.27;10.55;;;19.00;57.30;;;;;;5062331;27;95887;-86
2022/12/05 03:48:33;;;;;;;13.40;9.97;;;19.00;57.10;;;;;;5062159;27;88830;-86
2022/12/05 03:51:00;;;;;;;11.60;10.02;;;19.00;57.20;;;;;;5061705;27;87504;-86
2022/12/05 03:53:31;;;;;;;13.65;11.30;;;19.00;57.10;;;;;;5062262;27;89087;-86
2022/12/05 03:56:15;;;;;;;12.77;10.52;;;19.00;57.10;;;;;;5062084;27;87323;-86
2022/12/05 03:58:58;;;;;;;12.98;10.82;;;18.90;57.20;;;;;;5062784;27;87363;-86
2022/12/05 04:01:28;;;;;;;11.60;9.38;;;19.00;57.30;;;;;;5064655;27;87021;-86
2022/12/05 04:04:09;;;;;;;12.52;9.43;;;19.00;57.20;;;;;;5061744;27;88146;-86
2022/12/05 04:06:38;;;;;;;11.93;9.63;;;18.90;57.10;;;;;;5063018;27;88804;-86
2022/12/05 04:09:18;;;;;;;12.80;10.32;;;19.00;57.10;;;;;;5062490;27;87441;-86
2022/12/05 04:12:01;;;;;;;12.82;9.85;;;18.90;57.10;;;;;;5058591;27;87244;-87
2022/12/05 04:14:43;;;;;;;13.05;9.98;;;18.90;57.10;;;;;;5057517;27;89411;-86
2022/12/05 04:17:36;;;;;;;12.77;10.20;;;18.90;57.00;;;;;;5056734;27;89018;-87
2022/12/05 04:22:58;;;;;;;13.02;10.70;;;18.90;57.40;;;;;;4945995;28;87540;-86
2022/12/05 04:25:33;;;;;;;11.98;9.98;;;18.90;57.40;;;;;;4950006;28;87675;-86
2022/12/05 04:27:58;;;;;;;12.15;10.27;;;18.90;57.30;;;;;;4949236;28;92711;-86
2022/12/05 04:30:30;;;;;;;13.60;9.85;;;18.90;57.20;;;;;;4952981;28;87415;-86
2022/12/05 04:33:05;;;;;;;13.00;9.88;;;18.90;57.30;;;;;;4953370;28;87674;-86
2022/12/05 04:35:51;;;;;;;12.90;10.25;;;18.80;57.20;;;;;;4953096;28;88539;-86
2022/12/05 04:38:46;;;;;;;13.20;10.45;;;18.80;57.00;;;;;;4952657;28;87938;-86
2022/12/05 04:41:43;;;;;;;13.73;10.98;;;18.80;57.10;;;;;;4866518;28;88728;-86
2022/12/05 04:44:16;;;;;;;16.05;10.75;;;18.80;57.10;;;;;;4810791;29;90269;-88
2022/12/05 04:46:44;;;;;;;12.07;9.95;;;18.90;57.10;;;;;;4817600;29;88856;-89
2022/12/05 04:49:14;;;;;;;11.25;9.88;;;18.90;57.00;;;;;;4813408;29;87648;-89
2022/12/05 04:51:41;;;;;;;13.40;10.00;;;18.90;57.20;;;;;;4812554;29;87345;-87
2022/12/05 04:54:33;;;;;;;13.82;9.88;;;18.90;57.40;;;;;;4811747;29;87646;-88
2022/12/05 04:57:05;;;;;;;14.43;10.88;;;18.90;57.30;;;;;;4814378;29;88572;-87
2022/12/05 04:59:31;;;;;;;12.77;10.35;;;18.90;57.40;;;;;;4849947;29;87899;-87
2022/12/05 05:02:05;;;;;;;18.08;12.25;;;18.90;57.00;;;;;;4848958;29;87657;-89
2022/12/05 05:04:44;;;;;;;19.05;11.77;;;18.80;56.70;;;;;;4848408;28;87551;-87
2022/12/05 05:07:11;;;;;;;14.77;10.98;;;18.80;57.10;;;;;;4848175;29;89101;-87
2022/12/05 05:09:37;;;;;;;16.73;11.68;;;18.80;57.40;;;;;;4848003;28;88525;-87
2022/12/05 05:12:04;;;;;;;17.73;10.50;;;18.80;57.70;;;;;;4847961;29;87470;-88
2022/12/05 05:14:29;;;;;;;15.43;11.63;;;18.90;57.70;;;;;;4846366;29;88817;-86
2022/12/05 05:16:56;;;;;;;19.75;12.35;;;18.80;57.70;;;;;;4848760;29;88522;-87
2022/12/05 05:19:22;;;;;;;15.15;12.40;;;18.80;57.80;;;;;;4900264;28;87310;-88
2022/12/05 05:21:47;;;;;;;19.70;12.70;;;18.80;58.00;;;;;;4945008;28;87608;-88
2022/12/05 05:24:14;;;;;;;15.45;11.75;;;18.80;58.20;;;;;;4963217;28;86945;-87
2022/12/05 05:26:42;;;;;;;15.15;11.40;;;18.80;58.30;;;;;;4961926;28;88820;-86
2022/12/05 05:29:09;;;;;;;14.27;11.40;;;18.80;58.30;;;;;;4963482;28;88873;-87
2022/12/05 05:31:35;;;;;;;16.05;11.68;;;18.80;58.40;;;;;;4961941;28;88642;-88
2022/12/05 05:34:01;;;;;;;16.38;10.88;;;18.70;58.40;;;;;;5015213;27;87746;-88
2022/12/05 05:36:27;;;;;;;15.80;11.65;;;18.90;58.30;;;;;;5066484;27;88158;-90
2022/12/05 05:38:55;;;;;;;13.88;11.30;;;18.80;58.20;;;;;;5065615;27;87529;-89
2022/12/05 05:41:27;;;;;;;19.30;11.18;;;18.80;58.20;;;;;;5066100;27;87285;-86
2022/12/05 05:43:53;;;;;;;15.77;11.82;;;18.80;58.30;;;;;;5064079;27;87627;-88
2022/12/05 05:46:23;;;;;;;17.33;11.68;;;18.80;58.40;;;;;;5064666;27;88165;-87
2022/12/05 05:48:49;;;;;;;15.38;12.15;;;18.80;58.40;;;;;;5046371;27;91518;-86
2022/12/05 05:51:16;;;;;;;20.05;12.00;;;18.80;58.40;;;;;;5045631;27;87232;-86
2022/12/05 05:53:42;;;;;;;15.95;11.45;;;18.70;58.40;;;;;;5064696;27;88669;-86
2022/12/05 05:56:11;;;;;;;17.30;11.65;;;18.70;58.50;;;;;;5063017;27;89635;-86
2022/12/05 05:58:37;;;;;;;20.17;11.88;;;18.70;58.50;;;;;;5064850;27;89597;-88
2022/12/05 06:01:15;;;;;;;18.23;11.60;;;18.70;58.60;;;;;;5065805;27;87467;-86
2022/12/05 06:03:41;;;;;;;13.82;10.95;;;18.70;58.60;;;;;;5064703;27;87396;-87
2022/12/05 06:06:09;;;;;;;15.00;11.23;;;18.80;58.50;;;;;;5064748;27;89477;-87
2022/12/05 06:08:37;;;;;;;16.75;10.88;;;18.80;58.50;;;;;;5047699;27;89943;-86
2022/12/05 06:11:08;;;;;;;15.30;11.30;;;18.70;58.50;;;;;;5065454;27;87009;-87
2022/12/05 06:13:33;;;;;;;12.45;10.15;;;18.70;58.60;;;;;;5046932;27;90721;-86
2022/12/05 06:15:59;;;;;;;15.38;10.82;;;18.70;58.60;;;;;;5046757;27;88946;-86
2022/12/05 06:18:24;;;;;;;14.20;10.57;;;18.60;58.50;;;;;;5062799;27;90217;-87
2022/12/05 06:20:55;;;;;;;15.20;12.07;;;18.60;58.50;;;;;;5045614;27;88336;-88
2022/12/05 06:23:21;;;;;;;15.68;11.85;;;18.70;58.50;;;;;;5066118;27;87393;-87
2022/12/05 06:25:51;;;;;;;16.38;10.85;;;18.60;58.40;;;;;;5066200;27;88109;-88
2022/12/05 06:28:18;;;;;;;13.68;11.60;;;18.60;58.50;;;;;;5066600;27;88406;-87
2022/12/05 06:30:44;;;;;;;14.45;10.40;;;18.60;58.50;;;;;;5065021;27;88019;-87
2022/12/05 06:33:10;;;;;;;14.77;11.07;;;18.60;58.40;;;;;;5063937;27;87880;-87
2022/12/05 06:35:36;;;;;;;13.02;10.63;;;18.60;58.30;;;;;;5064879;27;88412;-87
2022/12/05 06:38:02;;;;;;;15.70;11.35;;;18.60;58.30;;;;;;5064159;27;87853;-87
2022/12/05 06:40:27;;;;;;;15.50;11.45;;;18.60;58.30;;;;;;5066535;27;87237;-88
2022/12/05 06:42:53;;;;;;;17.05;11.15;;;18.60;58.50;;;;;;5065531;27;87299;-87
2022/12/05 06:45:19;;;;;;;13.48;10.75;;;18.60;58.40;;;;;;5064368;27;89057;-87
2022/12/05 06:47:44;;;;;;;13.25;10.43;;;18.60;58.40;;;;;;5063089;27;93893;-87
2022/12/05 06:50:10;;;;;;;14.15;11.20;;;18.60;58.40;;;;;;5064983;27;87862;-88
2022/12/05 06:52:36;;;;;;;13.63;10.60;;;18.60;58.50;;;;;;5063575;27;87308;-88
2022/12/05 06:55:02;;;;;;;12.82;10.98;;;18.60;58.50;;;;;;5047308;27;91713;-87
2022/12/05 06:57:28;;;;;;;13.93;11.00;;;18.60;58.40;;;;;;5065793;27;87893;-86
2022/12/05 07:02:40;;;;;;;14.75;10.35;;;18.60;58.30;;;;;;5002618;28;87084;-88
2022/12/05 07:05:07;;;;;;;12.90;10.55;;;18.50;58.10;;;;;;5001785;28;88114;-87
2022/12/05 07:07:33;;;;;;;13.65;10.77;;;18.50;58.10;;;;;;5000238;28;88301;-86
2022/12/05 07:09:58;;;;;;;13.88;10.60;;;18.50;58.20;;;;;;5002464;28;87953;-88
2022/12/05 07:12:24;;;;;;;14.35;9.80;;;18.50;58.30;;;;;;5001398;28;87434;-87
2022/12/05 07:14:49;;;;;;;12.48;10.30;;;18.50;58.10;;;;;;5002213;28;88216;-88
2022/12/05 07:17:17;;;;;;;13.43;10.15;;;18.60;58.20;;;;;;5000723;28;88407;-87
2022/12/05 07:19:43;;;;;;;13.88;10.95;;;18.50;58.20;;;;;;5000967;28;87476;-89
2022/12/05 07:22:09;;;;;;;12.98;10.27;;;18.50;58.10;;;;;;5000736;28;88072;-88
2022/12/05 07:24:34;;;;;;;13.55;10.68;;;18.50;58.20;;;;;;4982467;28;96303;-87
2022/12/05 07:27:00;;;;;;;14.80;11.32;;;18.60;58.20;;;;;;4998836;28;93226;-86
2022/12/05 07:29:25;;;;;;;14.02;10.57;;;18.50;58.00;;;;;;5000240;28;92126;-87
2022/12/05 07:31:53;;;;;;;14.23;10.77;;;18.50;58.00;;;;;;4999042;28;92914;-87
2022/12/05 07:34:18;;;;;;;12.65;10.60;;;18.50;58.20;;;;;;4999173;28;94750;-87
2022/12/05 07:36:44;;;;;;;12.02;10.32;;;18.50;58.10;;;;;;4997151;28;94532;-86
2022/12/05 07:39:09;;;;;;;11.65;10.05;;;18.50;58.10;;;;;;5012300;27;92139;-86
2022/12/05 07:41:35;;;;;;;13.98;10.23;;;18.50;58.10;;;;;;5060690;27;92538;-87
2022/12/05 07:44:01;;;;;;;12.48;9.98;;;18.50;58.30;;;;;;5059480;27;93634;-86
2022/12/05 07:46:28;;;;;;;12.75;10.10;;;18.50;58.20;;;;;;5062522;27;93320;-87
2022/12/05 07:48:54;;;;;;;13.10;10.80;;;18.50;58.10;;;;;;5058777;27;92686;-87
2022/12/05 07:51:20;;;;;;;13.07;10.05;;;18.50;58.10;;;;;;5060023;27;92119;-88
2022/12/05 07:53:46;;;;;;;12.07;9.95;;;18.50;58.10;;;;;;5059902;27;93713;-88
2022/12/05 07:56:15;;;;;;;11.95;10.38;;;18.50;58.00;;;;;;5060651;27;93314;-87
2022/12/05 07:58:42;;;;;;;13.02;10.27;;;18.50;58.00;;;;;;5060822;27;93388;-86
2022/12/05 08:01:09;;;;;;;11.98;10.55;;;18.50;57.80;;;;;;5061137;27;92461;-87
2022/12/05 08:03:36;;;;;;;11.38;9.77;;;18.50;57.70;;;;;;5061048;27;93526;-86
2022/12/05 08:06:10;;;;;;;14.00;10.55;;;18.50;57.90;;;;;;5063118;27;93174;-86
2022/12/05 08:08:36;;;;;;;11.27;9.50;;;18.50;58.00;;;;;;5060613;27;92547;-87
2022/12/05 08:11:04;;;;;;;12.90;9.68;;;18.50;58.00;;;;;;5060737;27;92529;-87
2022/12/05 08:13:30;;;;;;;13.13;9.63;;;18.50;58.00;;;;;;5043493;27;95002;-86
2022/12/05 08:16:01;;;;;;;12.13;9.50;;;18.50;57.90;;;;;;5059581;27;92813;-86
2022/12/05 08:18:26;;;;;;;11.75;9.90;;;18.50;57.60;;;;;;5062624;27;92219;-87
2022/12/05 08:20:52;;;;;;;13.00;10.18;;;18.50;57.60;;;;;;5017236;28;92481;-86
2022/12/05 08:23:17;;;;;;;13.57;10.02;;;18.60;57.00;;;;;;5016855;28;94434;-86
2022/12/05 08:25:43;;;;;;;13.68;9.98;;;18.70;57.40;;;;;;5024492;28;94451;-87
2022/12/05 08:28:09;;;;;;;11.48;9.52;;;18.80;57.30;;;;;;5017989;28;92415;-88
2022/12/05 08:30:34;;;;;;;13.40;10.57;;;18.90;57.50;;;;;;5017285;28;92092;-89
2022/12/05 08:33:00;;;;;;;18.33;9.88;;;19.00;57.50;;;;;;5016825;28;92735;-89
2022/12/05 08:35:26;;;;;;;12.95;9.38;;;19.20;57.60;;;;;;5019439;28;93840;-90
2022/12/05 08:37:51;;;;;;;11.52;9.05;;;19.30;57.40;;;;;;5017198;27;93564;-86
2022/12/05 08:40:17;;;;;;;13.27;9.80;;;19.40;57.50;;;;;;5019023;28;92198;-86
2022/12/05 08:42:43;;;;;;;10.63;8.75;;;19.60;57.50;;;;;;5017215;28;93494;-87
2022/12/05 08:45:09;;;;;;;16.88;8.73;;;19.60;57.40;;;;;;4999779;28;96044;-86
2022/12/05 08:47:35;;;;;;;10.90;9.10;;;19.80;57.50;;;;;;5016984;28;93348;-86
2022/12/05 08:50:00;;;;;;;11.40;8.52;;;19.90;57.30;;;;;;5010002;28;92188;-86
2022/12/05 08:52:26;;;;;;;12.10;9.02;;;20.00;57.30;;;;;;5048288;27;93731;-86
2022/12/05 08:54:51;;;;;;;11.30;8.82;;;20.00;57.10;;;;;;5059114;27;93328;-86
2022/12/05 08:57:17;;;;;;;13.65;9.15;;;20.00;56.90;;;;;;5062810;27;92206;-86
2022/12/05 08:59:43;;;;;;;13.43;8.90;;;20.10;57.00;;;;;;5061397;27;91979;-86
2022/12/05 09:02:09;;;;;;;12.55;8.88;;;20.10;56.90;;;;;;5061348;27;94737;-86
2022/12/05 09:04:35;;;;;;;14.38;9.52;;;20.10;56.80;;;;;;5060952;27;92606;-86
2022/12/05 09:07:02;;;;;;;13.82;9.63;;;20.00;56.90;;;;;;5062262;27;93554;-87
2022/12/05 09:09:28;;;;;;;13.23;9.57;;;20.00;57.10;;;;;;5060829;27;92524;-87
2022/12/05 09:11:54;;;;;;;13.98;9.57;;;20.10;56.90;;;;;;5060892;27;94928;-86
2022/12/05 09:14:19;;;;;;;11.68;9.07;;;20.00;57.20;;;;;;5060091;27;94352;-86
2022/12/05 09:16:46;;;;;;;12.98;9.90;;;19.90;57.10;;;;;;5062355;27;92195;-87
2022/12/05 09:19:23;;;;;;;11.93;9.77;;;20.00;56.90;;;;;;5065754;27;92426;-87
2022/12/05 09:21:49;;;;;;;14.68;9.82;;;20.00;55.60;;;;;;5063728;27;92686;-86
2022/12/05 09:24:15;;;;;;;14.65;9.43;;;20.00;55.90;;;;;;5063586;27;93331;-88
2022/12/05 09:26:41;;;;;;;12.50;9.27;;;19.90;56.80;;;;;;5044237;27;92411;-89
2022/12/05 09:29:07;;;;;;;18.17;10.25;;;19.80;56.90;;;;;;5045499;27;92145;-86
2022/12/05 09:31:33;;;;;;;15.98;9.68;;;20.00;56.90;;;;;;5060313;27;93638;-87
2022/12/05 09:33:59;;;;;;;14.60;9.73;;;20.00;56.20;;;;;;5044184;27;96500;-87
2022/12/05 09:36:28;;;;;;;26.38;12.00;;;19.90;56.90;;;;;;5063270;27;93540;-86
2022/12/05 09:38:57;;;;;;;20.10;12.03;;;19.90;57.30;;;;;;5061834;27;92689;-87
2022/12/05 09:42:03;;;;;;;18.77;11.10;;;19.90;57.70;;;;;;5065391;27;92728;-89
2022/12/05 09:44:47;;;;;;;64.00;21.55;;;19.90;57.70;;;;;;5060440;27;93327;-87
2022/12/05 09:47:25;;;;;;;59.80;22.10;;;20.00;55.90;;;;;;5063399;27;92306;-87
2022/12/05 09:50:05;;;;;;;52.00;18.52;;;20.00;56.30;;;;;;5059507;27;92627;-87
2022/12/05 09:52:37;;;;;;;42.30;18.42;;;20.00;57.20;;;;;;5060907;27;93588;-87
2022/12/05 09:55:26;;;;;;;42.28;16.55;;;20.10;57.50;;;;;;5063738;27;92802;-86
2022/12/05 09:58:01;;;;;;;39.40;18.10;;;20.20;57.60;;;;;;5060313;27;92503;-87
2022/12/05 10:00:29;;;;;;;38.10;17.05;;;20.20;58.40;;;;;;5043363;27;92553;-87
2022/12/05 10:03:24;;;;;;;37.85;16.60;;;20.30;58.10;;;;;;5060776;27;93591;-88
2022/12/05 10:06:17;;;;;;;41.13;19.08;;;20.30;57.80;;;;;;5062485;27;94220;-87
2022/12/05 10:08:57;;;;;;;41.10;19.25;;;20.30;58.70;;;;;;5060648;27;91976;-87
2022/12/05 10:11:40;;;;;;;33.75;17.27;;;20.30;58.80;;;;;;5061783;27;92497;-87
2022/12/05 10:14:20;;;;;;;41.03;17.42;;;20.30;58.80;;;;;;5043810;27;96147;-86
2022/12/05 10:16:56;;;;;;;40.67;17.55;;;20.20;58.50;;;;;;5062521;27;93945;-87
2022/12/05 10:19:33;;;;;;;30.90;16.83;;;20.20;58.90;;;;;;5063892;27;92656;-85
2022/12/05 10:22:09;;;;;;;36.92;16.95;;;20.20;59.10;;;;;;5060342;27;92186;-86
2022/12/05 10:24:45;;;;;;;41.85;18.08;;;20.30;59.10;;;;;;5059872;27;94298;-86
2022/12/05 10:27:31;;;;;;;39.25;17.90;;;20.20;59.30;;;;;;5061000;27;92873;-86
2022/12/05 10:30:01;;;;;;;33.03;17.17;;;20.20;60.10;;;;;;5060362;27;93386;-86
2022/12/05 10:32:36;;;;;;;37.97;16.83;;;20.20;59.50;;;;;;5061632;27;92371;-87
2022/12/05 10:35:23;;;;;;;33.75;16.15;;;20.20;59.50;;;;;;5041204;27;96421;-85
2022/12/05 10:37:56;;;;;;;36.65;16.95;;;20.20;59.30;;;;;;5062113;27;92599;-83
2022/12/05 10:40:32;;;;;;;40.85;16.15;;;20.30;58.60;;;;;;5067795;27;93024;-83
2022/12/05 10:42:57;;;;;;;37.10;16.88;;;20.30;58.00;;;;;;5060236;27;92327;-84
2022/12/05 10:45:23;;;;;;;34.25;16.17;;;20.30;58.30;;;;;;5059212;27;93648;-84
2022/12/05 10:47:54;;;;;;;27.70;15.35;;;20.40;58.40;;;;;;5061560;27;92952;-86
2022/12/05 10:50:32;;;;;;;38.00;15.88;;;20.40;58.50;;;;;;5059173;27;92483;-84
2022/12/05 10:52:59;;;;;;;33.22;15.65;;;20.40;58.70;;;;;;5036951;27;92628;-83
2022/12/05 10:55:33;;;;;;;28.30;15.30;;;20.40;58.60;;;;;;5055288;27;94738;-82
2022/12/05 10:58:24;;;;;;;24.65;14.60;;;20.40;58.30;;;;;;5054931;27;99088;-83
2022/12/05 11:01:08;;;;;;;30.08;14.60;;;20.50;58.10;;;;;;5053647;27;92391;-83
2022/12/05 11:03:35;;;;;;;28.65;15.38;;;20.40;57.80;;;;;;5054688;27;92545;-82
2022/12/05 11:06:25;;;;;;;27.55;14.65;;;20.40;57.70;;;;;;5052906;27;93248;-82
2022/12/05 11:08:54;;;;;;;26.88;14.18;;;20.40;57.80;;;;;;5052603;27;93584;-82
2022/12/05 11:11:23;;;;;;;33.90;14.50;;;20.40;57.80;;;;;;5054006;27;92349;-81
2022/12/05 11:14:01;;;;;;;27.15;15.30;;;20.40;58.30;;;;;;5054314;27;91623;-82
2022/12/05 11:16:33;;;;;;;29.30;15.27;;;20.40;58.30;;;;;;5054038;27;96012;-83
2022/12/05 11:19:35;;;;;;;25.83;13.65;;;20.40;58.40;;;;;;5051611;27;97976;-82
2022/12/05 11:22:02;;;;;;;22.98;14.10;;;20.40;58.60;;;;;;4988644;28;93317;-82
2022/12/05 11:24:37;;;;;;;25.50;13.82;;;20.40;58.40;;;;;;4975201;28;92732;-83
2022/12/05 11:27:14;;;;;;;27.63;13.77;;;20.40;58.50;;;;;;4992484;28;92747;-82
2022/12/05 11:29:41;;;;;;;24.33;14.02;;;20.40;58.80;;;;;;4992198;28;93108;-83
2022/12/05 11:32:18;;;;;;;26.95;13.77;;;20.40;59.00;;;;;;4993499;28;93271;-83
2022/12/05 11:34:52;;;;;;;25.10;13.98;;;20.40;59.00;;;;;;4990030;28;92546;-82
2022/12/05 11:37:47;;;;;;;26.75;12.15;;;20.50;59.30;;;;;;4994462;28;93822;-82
2022/12/05 11:40:41;;;;;;;26.02;13.32;;;20.60;59.00;;;;;;4922321;28;100458;-81
2022/12/05 11:43:25;;;;;;;22.45;12.32;;;20.80;58.90;;;;;;4870315;28;92061;-83
2022/12/05 11:46:05;;;;;;;27.20;13.10;;;20.80;58.80;;;;;;4875084;28;92259;-83
2022/12/05 11:48:37;;;;;;;28.50;12.25;;;20.80;58.80;;;;;;4873400;28;94669;-83
2022/12/05 11:51:23;;;;;;;21.30;12.95;;;20.80;58.40;;;;;;4879575;28;95745;-82
2022/12/05 11:54:07;;;;;;;26.45;13.73;;;20.80;58.40;;;;;;4874685;28;92889;-82
2022/12/05 11:57:11;;;;;;;26.42;13.25;;;20.70;57.00;;;;;;4878563;28;92737;-82
2022/12/05 12:00:21;;;;;;;22.70;13.18;;;20.60;58.00;;;;;;4853122;28;93578;-82
2022/12/05 12:02:52;;;;;;;;;;;20.60;68.40;;;;;;4796495;29;93455;-81
2022/12/05 12:05:34;;;;;;;26.70;14.02;;;20.60;68.80;;;;;;4797030;29;93339;-82
2022/12/05 12:08:07;;;;;;;27.98;15.63;;;20.50;67.80;;;;;;4797770;29;91846;-83
2022/12/05 12:10:41;;;;;;;23.65;13.60;;;20.50;70.40;;;;;;4796621;29;94229;-82
2022/12/05 12:13:07;;;;;;;21.02;12.73;;;20.40;68.70;;;;;;4795247;29;94352;-82
2022/12/05 12:15:47;;;;;;;22.73;13.77;;;20.40;66.50;;;;;;4796719;29;92990;-83
2022/12/05 12:18:19;;;;;;;18.92;11.48;;;20.40;68.00;;;;;;4839748;29;94400;-82
2022/12/05 12:21:04;;;;;;;23.15;13.15;;;20.40;67.10;;;;;;4887425;28;93177;-81
2022/12/05 12:23:35;;;;;;;19.50;12.68;;;20.50;63.00;;;;;;4902649;28;93989;-83
2022/12/05 12:26:34;;;;;;;17.63;11.88;;;20.40;62.70;;;;;;4903507;28;92587;-83
2022/12/05 12:29:26;;;;;;;22.60;13.40;;;20.40;63.00;;;;;;4903324;28;93140;-83
2022/12/05 12:32:13;;;;;;;21.20;11.35;;;20.40;63.00;;;;;;4827175;29;93586;-83
2022/12/05 12:35:16;;;;;;;20.73;11.98;;;20.50;62.80;;;;;;4826901;29;95781;-81
2022/12/05 12:37:50;;;;;;;19.58;11.95;;;20.40;62.40;;;;;;4944387;28;92727;-82
2022/12/05 12:40:29;;;;;;;18.08;10.98;;;20.50;62.20;;;;;;4957270;28;92626;-81
2022/12/05 12:43:07;;;;;;;20.38;11.35;;;20.40;62.10;;;;;;4958002;28;104512;-82
2022/12/05 12:45:35;;;;;;;19.55;11.35;;;20.40;62.10;;;;;;4955166;28;94024;-83
2022/12/05 12:48:25;;;;;;;16.17;11.30;;;20.50;61.60;;;;;;4960391;28;92596;-83
2022/12/05 12:50:53;;;;;;;18.95;11.73;;;20.50;61.80;;;;;;4962890;28;92724;-83
2022/12/05 12:57:02;;;;;;;19.20;11.63;;;20.40;61.20;;;;;;4863180;28;93019;-83
2022/12/05 12:59:51;;;;;;;15.00;10.65;;;20.50;59.40;;;;;;4875140;28;92712;-83
2022/12/05 13:03:09;;;;;;;16.05;9.98;;;20.50;60.10;;;;;;4873906;28;91892;-84
2022/12/05 13:05:42;;;;;;;17.58;9.85;;;20.60;59.70;;;;;;4781634;29;93740;-84